Time;durP1;ratioP1;P1;durP2;ratioP2;P2;SDS_P1;SDS_P2;PMS_P1;PMS_P2;Temp;Humidity;BMP_temperature;BMP_pressure;BME280_temperature;BME280_humidity;BME280_pressure;Samples;Min_cycle;Max_cycle;Signal;HPM_P1;HPM_P2
2023/01/23 00:00:26;;;;;;;24.17;15.77;;;;;;;11.01;78.93;100329.97;5091857;28;20020;-81
2023/01/23 00:02:52;;;;;;;28.67;15.55;;;;;;;10.67;79.02;100285.16;5091823;28;20024;-82
2023/01/23 00:05:17;;;;;;;24.55;15.38;;;;;;;11.02;78.93;100337.75;5091843;28;20052;-82
2023/01/23 00:07:43;;;;;;;25.77;16.08;;;;;;;10.87;79.00;100322.69;5090504;28;20447;-82
2023/01/23 00:10:10;;;;;;;23.50;14.95;;;;;;;10.85;78.76;100299.06;5091706;28;20039;-81
2023/01/23 00:12:35;;;;;;;25.42;15.65;;;;;;;10.30;79.03;100233.50;5090183;28;20483;-82
2023/01/23 00:15:00;;;;;;;26.75;14.35;;;;;;;10.82;79.19;100308.13;5091551;28;20111;-82
2023/01/23 00:17:26;;;;;;;23.10;14.73;;;;;;;10.73;78.97;100301.19;5090291;28;20111;-82
2023/01/23 00:19:53;;;;;;;23.60;15.00;;;;;;;10.61;78.68;100297.19;5091364;28;20048;-82
2023/01/23 00:22:18;;;;;;;26.42;14.73;;;;;;;10.70;78.40;100283.00;5090308;28;20031;-82
2023/01/23 00:24:44;;;;;;;23.45;15.07;;;;;;;10.76;78.49;100295.56;5091631;28;20020;-81
2023/01/23 00:27:09;;;;;;;27.70;13.85;;;;;;;10.79;78.71;100295.25;5091507;28;20536;-81
2023/01/23 00:29:34;;;;;;;23.73;16.75;;;;;;;10.54;78.91;100269.75;5091718;28;20025;-81
2023/01/23 00:32:00;;;;;;;23.77;15.25;;;;;;;10.23;78.39;100261.53;5091543;28;20024;-81
2023/01/23 00:34:25;;;;;;;24.30;15.02;;;;;;;10.63;79.05;100303.13;5090166;28;20019;-81
2023/01/23 00:36:50;;;;;;;23.77;16.40;;;;;;;10.76;78.70;100302.66;5090167;28;20031;-81
2023/01/23 00:39:21;;;;;;;24.92;14.65;;;;;;;11.00;78.99;100338.91;5091452;28;20105;-81
2023/01/23 00:41:48;;;;;;;24.83;14.55;;;;;;;11.10;78.58;100366.00;5090010;28;20048;-81
2023/01/23 00:44:14;;;;;;;22.25;13.90;;;;;;;11.09;78.63;100348.50;5091547;28;20016;-81
2023/01/23 00:46:40;;;;;;;20.65;13.70;;;;;;;10.57;78.40;100261.53;5095564;28;20020;-81
2023/01/23 00:49:06;;;;;;;21.42;13.55;;;;;;;11.11;78.62;100351.81;5095614;28;20409;-80
2023/01/23 00:51:31;;;;;;;22.45;13.15;;;;;;;11.00;78.73;100367.97;5095216;28;20028;-80
2023/01/23 00:53:56;;;;;;;21.42;13.48;;;;;;;10.77;79.01;100297.22;5093947;28;20012;-81
2023/01/23 00:56:22;;;;;;;25.77;14.90;;;;;;;10.81;78.54;100327.63;5094993;28;20016;-81
2023/01/23 00:58:47;;;;;;;22.05;12.98;;;;;;;10.74;78.74;100312.56;5093765;28;20031;-80
2023/01/23 01:01:14;;;;;;;20.10;12.82;;;;;;;11.05;78.82;100349.81;5093821;28;20074;-80
2023/01/23 01:03:41;;;;;;;21.15;12.50;;;;;;;10.87;78.86;100334.06;5093755;28;20398;-80
2023/01/23 01:06:07;;;;;;;24.75;15.00;;;;;;;10.95;78.82;100354.41;5095001;28;20019;-81
2023/01/23 01:08:32;;;;;;;23.30;13.23;;;;;;;10.36;78.34;100277.75;5093645;28;20026;-80
2023/01/23 01:10:58;;;;;;;20.55;13.55;;;;;;;9.30;79.00;100090.91;5094964;28;20023;-81
2023/01/23 01:13:23;;;;;;;18.02;11.52;;;;;;;10.70;78.49;100321.81;5093565;28;20023;-81
2023/01/23 01:15:52;;;;;;;18.00;12.35;;;;;;;9.90;78.51;100176.09;5094947;28;20024;-81
2023/01/23 01:18:19;;;;;;;18.75;12.20;;;;;;;11.00;78.06;100354.75;5094696;28;21045;-81
2023/01/23 01:20:45;;;;;;;19.80;12.50;;;;;;;11.00;78.90;100378.53;5094668;28;20509;-80
2023/01/23 01:23:11;;;;;;;14.98;11.63;;;;;;;10.40;78.45;100283.53;5094593;28;20035;-81
2023/01/23 01:25:37;;;;;;;19.60;13.07;;;;;;;10.98;78.73;100367.28;5093144;28;20024;-81
2023/01/23 01:28:02;;;;;;;18.63;12.73;;;;;;;10.44;78.46;100292.81;5094316;28;20523;-81
2023/01/23 01:30:29;;;;;;;23.13;13.25;;;;;;;10.71;78.77;100332.22;5093159;28;20085;-81
2023/01/23 01:32:55;;;;;;;20.35;11.80;;;;;;;10.94;78.89;100366.78;5093142;28;20409;-80
2023/01/23 01:35:22;;;;;;;21.50;13.02;;;;;;;10.95;78.92;100378.19;5093091;28;20020;-80
2023/01/23 01:37:47;;;;;;;20.40;12.57;;;;;;;10.94;78.70;100371.25;5093011;28;20511;-80
2023/01/23 01:40:17;;;;;;;21.73;11.85;;;;;;;10.96;78.67;100374.56;5094336;28;20012;-81
2023/01/23 01:42:56;;;;;;;21.23;13.85;;;;;;;10.94;78.37;100371.25;5093217;28;20154;-81
2023/01/23 01:45:59;;;;;;;19.10;13.88;;;;;;;10.92;78.56;100373.22;5095715;28;20035;-81
2023/01/23 01:48:29;;;;;;;23.58;13.30;;;;;;;10.66;78.71;100339.78;5105308;28;20029;-81
2023/01/23 01:50:56;;;;;;;21.15;13.70;;;;;;;10.58;78.65;100337.09;5116107;28;20097;-79
2023/01/23 01:53:24;;;;;;;22.23;13.85;;;;;;;10.86;78.48;100374.69;5093679;28;20408;-81
2023/01/23 01:55:50;;;;;;;24.55;14.20;;;;;;;10.53;78.32;100341.22;5093527;28;20413;-80
2023/01/23 01:58:16;;;;;;;19.00;13.73;;;;;;;10.58;78.44;100336.28;5094070;28;20020;-80
2023/01/23 02:00:41;;;;;;;21.90;14.32;;;;;;;10.32;78.65;100301.97;5093817;28;20016;-80
2023/01/23 02:03:07;;;;;;;20.88;13.88;;;;;;;10.57;78.25;100343.38;5093712;28;20020;-80
2023/01/23 02:05:38;;;;;;;20.60;13.68;;;;;;;10.83;78.39;100375.84;5093883;28;20463;-80
2023/01/23 02:08:13;;;;;;;24.88;16.25;;;;;;;10.83;78.23;100383.75;5093779;28;20027;-80
2023/01/23 02:10:40;;;;;;;19.15;14.55;;;;;;;10.66;77.91;100354.81;5092446;28;20089;-80
2023/01/23 02:13:29;;;;;;;18.58;14.00;;;;;;;10.60;77.99;100361.53;5093732;28;20097;-81
2023/01/23 02:15:55;;;;;;;20.52;14.73;;;;;;;10.32;78.67;100300.16;5093990;28;20016;-80
2023/01/23 02:18:22;;;;;;;23.25;15.25;;;;;;;10.66;77.98;100384.69;5092397;28;20039;-81
2023/01/23 02:20:50;;;;;;;18.55;13.63;;;;;;;10.25;78.16;100306.22;5092196;28;20044;-81
2023/01/23 02:23:23;;;;;;;20.65;14.07;;;;;;;10.77;77.59;100384.41;5092294;28;20020;-81
2023/01/23 02:25:50;;;;;;;22.00;14.55;;;;;;;10.75;78.18;100383.72;5093750;28;20027;-80
2023/01/23 02:28:16;;;;;;;19.88;14.02;;;;;;;10.25;77.84;100311.50;5093637;28;20032;-80
2023/01/23 02:30:45;;;;;;;27.25;14.18;;;;;;;10.74;77.90;100407.66;5092242;28;20520;-81
2023/01/23 02:33:30;;;;;;;23.75;14.82;;;;;;;10.71;77.51;100381.56;5092177;28;20067;-81
2023/01/23 02:36:00;;;;;;;20.75;14.45;;;;;;;10.36;78.31;100335.81;5091919;28;20455;-81
2023/01/23 02:38:30;;;;;;;26.08;16.27;;;;;;;10.60;77.85;100380.03;5091943;28;20431;-81
2023/01/23 02:41:00;;;;;;;24.65;14.65;;;;;;;10.70;78.11;100395.75;5091881;28;20061;-81
2023/01/23 02:43:33;;;;;;;22.48;13.90;;;;;;;10.72;78.36;100396.41;5093289;28;20031;-81
2023/01/23 02:46:10;;;;;;;24.77;15.48;;;;;;;10.67;77.67;100398.72;5093125;28;20016;-80
2023/01/23 02:48:38;;;;;;;22.30;14.65;;;;;;;10.68;77.89;100400.38;5093065;28;20024;-81
2023/01/23 02:51:04;;;;;;;19.67;13.93;;;;;;;10.25;77.53;100348.47;5091636;28;20028;-80
2023/01/23 02:53:30;;;;;;;22.73;14.75;;;;;;;10.03;77.44;100303.13;5091554;28;20412;-81
2023/01/23 02:55:57;;;;;;;25.90;15.60;;;;;;;10.30;77.70;100332.97;5092714;28;20098;-81
2023/01/23 03:01:07;;;;;;;24.45;14.85;;;;;;;9.11;77.71;100145.47;5093214;28;20027;-80
2023/01/23 03:03:33;;;;;;;24.98;15.15;;;;;;;10.22;77.43;100312.66;5092490;28;20016;-80
2023/01/23 03:06:02;;;;;;;24.30;16.08;;;;;;;10.32;77.13;100347.69;5091980;28;20424;-81
2023/01/23 03:08:32;;;;;;;20.75;15.13;;;;;;;9.63;76.85;100240.34;5092234;28;20016;-81
2023/01/23 03:10:58;;;;;;;20.90;12.88;;;;;;;10.16;76.73;100307.97;5091308;28;20120;-81
2023/01/23 03:13:23;;;;;;;20.38;13.10;;;;;;;8.99;76.58;100137.97;5092719;28;20067;-80
2023/01/23 03:15:52;;;;;;;19.85;13.30;;;;;;;9.01;76.94;100150.00;5091903;28;20044;-80
2023/01/23 03:18:18;;;;;;;22.17;14.85;;;;;;;10.67;76.78;100404.81;5092845;28;20031;-80
2023/01/23 03:20:44;;;;;;;22.20;14.05;;;;;;;10.23;76.24;100335.41;5092265;28;20072;-80
2023/01/23 03:23:09;;;;;;;18.75;14.40;;;;;;;10.09;76.66;100320.13;5092263;28;20095;-80
2023/01/23 03:25:35;;;;;;;20.23;13.18;;;;;;;10.13;76.77;100342.59;5090984;28;20483;-80
2023/01/23 03:28:00;;;;;;;21.65;13.75;;;;;;;10.45;77.15;100402.72;5092638;28;20032;-80
2023/01/23 03:30:26;;;;;;;24.55;15.00;;;;;;;10.09;76.45;100325.41;5091147;28;20027;-81
2023/01/23 03:32:51;;;;;;;18.52;12.88;;;;;;;9.95;76.52;100289.88;5090850;28;20035;-81
2023/01/23 03:35:20;;;;;;;19.40;14.02;;;;;;;9.96;76.32;100288.88;5092100;28;20110;-80
2023/01/23 03:37:46;;;;;;;22.38;13.90;;;;;;;10.02;76.60;100322.56;5092095;28;20027;-81
2023/01/23 03:43:02;;;;;;;19.98;13.48;;;;;;;10.64;75.99;100420.97;5092267;28;20026;-80
2023/01/23 03:45:27;;;;;;;18.88;13.05;;;;;;;10.55;76.00;100424.56;5092058;28;20020;-80
2023/01/23 03:47:53;;;;;;;23.42;13.93;;;;;;;10.19;76.78;100339.31;5091672;28;20052;-80
2023/01/23 03:50:18;;;;;;;19.60;13.68;;;;;;;10.08;76.33;100324.59;5091653;28;20031;-80
2023/01/23 03:52:44;;;;;;;18.27;13.23;;;;;;;10.40;75.86;100400.56;5091684;28;20031;-80
2023/01/23 03:55:09;;;;;;;22.52;13.93;;;;;;;10.22;75.94;100367.25;5091842;28;20058;-80
2023/01/23 03:57:34;;;;;;;19.45;14.02;;;;;;;9.75;76.42;100298.97;5091743;28;20031;-80
2023/01/23 04:00:00;;;;;;;21.20;14.20;;;;;;;10.22;76.12;100378.63;5091874;28;20016;-80
2023/01/23 04:02:26;;;;;;;21.75;13.23;;;;;;;9.72;76.43;100289.56;5090470;28;20016;-80
2023/01/23 04:04:52;;;;;;;23.30;13.10;;;;;;;10.70;76.47;100459.97;5091936;28;20050;-81
2023/01/23 04:07:17;;;;;;;23.13;14.10;;;;;;;10.56;76.18;100433.31;5091684;28;20015;-81
2023/01/23 04:09:43;;;;;;;22.17;15.10;;;;;;;10.31;76.17;100427.84;5091853;28;20461;-81
2023/01/23 04:12:08;;;;;;;22.35;13.18;;;;;;;9.93;76.14;100338.50;5091990;28;20024;-81
2023/01/23 04:14:36;;;;;;;22.73;15.02;;;;;;;10.70;76.09;100465.25;5091707;28;20028;-80
2023/01/23 04:17:03;;;;;;;21.73;14.20;;;;;;;9.87;76.17;100314.38;5091743;28;20023;-81
2023/01/23 04:19:29;;;;;;;20.95;14.38;;;;;;;9.96;76.15;100328.47;5090072;28;20036;-81
2023/01/23 04:21:54;;;;;;;19.50;13.85;;;;;;;9.75;76.27;100341.16;5091561;28;20047;-81
2023/01/23 04:24:20;;;;;;;24.00;13.82;;;;;;;10.22;76.28;100380.44;5090502;28;20020;-80
2023/01/23 04:26:45;;;;;;;27.40;14.13;;;;;;;10.57;76.75;100458.72;5091862;28;20419;-81
2023/01/23 04:29:11;;;;;;;19.55;13.10;;;;;;;9.93;76.68;100356.97;5091721;28;20028;-81
2023/01/23 04:31:37;;;;;;;21.42;13.40;;;;;;;10.11;76.76;100376.22;5091414;28;20017;-81
2023/01/23 04:34:02;;;;;;;23.55;14.18;;;;;;;9.86;76.83;100338.28;5091884;28;20098;-81
2023/01/23 04:36:28;;;;;;;26.10;16.00;;;;;;;10.07;76.73;100377.50;5090656;28;20055;-81
2023/01/23 04:38:53;;;;;;;19.67;13.88;;;;;;;10.08;76.50;100376.53;5105805;28;20020;-80
2023/01/23 04:41:24;;;;;;;24.05;14.07;;;;;;;10.72;76.82;100470.38;5110861;28;20020;-80
2023/01/23 04:43:49;;;;;;;24.10;14.60;;;;;;;10.06;77.03;100366.13;5091776;28;20020;-80
2023/01/23 04:46:15;;;;;;;22.83;13.93;;;;;;;10.41;76.78;100439.16;5090400;28;20047;-81
2023/01/23 04:48:40;;;;;;;21.67;13.10;;;;;;;10.27;76.95;100409.84;5091246;28;20024;-81
2023/01/23 04:51:06;;;;;;;22.40;13.63;;;;;;;9.54;76.65;100337.03;5091080;28;20450;-80
2023/01/23 04:53:32;;;;;;;22.50;13.93;;;;;;;10.66;76.58;100489.50;5091173;28;20042;-80
2023/01/23 04:55:57;;;;;;;24.65;14.35;;;;;;;10.47;77.24;100464.94;5090880;28;20024;-82
2023/01/23 04:58:23;;;;;;;22.98;13.48;;;;;;;8.90;77.46;100208.16;5089868;28;20020;-82
2023/01/23 05:00:48;;;;;;;21.17;13.48;;;;;;;9.92;76.86;100368.50;5088891;28;20125;-81
2023/01/23 05:03:15;;;;;;;25.52;15.75;;;;;;;10.73;76.81;100495.81;5088976;28;20069;-81
2023/01/23 05:05:42;;;;;;;24.60;14.38;;;;;;;10.74;76.98;100498.28;5090703;28;20081;-81
2023/01/23 05:08:11;;;;;;;25.73;13.90;;;;;;;9.84;76.30;100354.25;5089113;28;20026;-80
2023/01/23 05:10:37;;;;;;;21.65;13.75;;;;;;;10.34;77.00;100442.53;5089486;28;20050;-81
2023/01/23 05:13:02;;;;;;;21.38;13.63;;;;;;;9.84;76.42;100409.66;5089721;28;20024;-80
2023/01/23 05:15:28;;;;;;;23.02;12.20;;;;;;;10.71;76.75;100503.88;5090998;28;20012;-80
2023/01/23 05:17:54;;;;;;;21.52;13.18;;;;;;;10.34;76.94;100458.38;5089427;28;20501;-81
2023/01/23 05:20:19;;;;;;;25.05;14.80;;;;;;;9.64;76.42;100346.66;5088021;28;20032;-81
2023/01/23 05:22:51;;;;;;;23.00;14.23;;;;;;;10.42;76.86;100487.50;5083803;28;20044;-81
2023/01/23 05:25:22;;;;;;;23.38;13.50;;;;;;;10.10;77.28;100424.69;5090778;28;20020;-81
2023/01/23 05:27:47;;;;;;;20.07;14.10;;;;;;;10.18;76.96;100438.78;5101836;28;20031;-81
2023/01/23 05:30:13;;;;;;;22.83;13.30;;;;;;;10.23;77.05;100461.28;5112512;28;20031;-81
2023/01/23 05:32:38;;;;;;;21.73;14.15;;;;;;;10.49;76.67;100491.19;5095778;28;20616;-80
2023/01/23 05:35:04;;;;;;;22.35;12.90;;;;;;;10.20;76.39;100467.69;5094417;28;20095;-79
2023/01/23 05:37:29;;;;;;;20.23;13.38;;;;;;;10.71;76.52;100524.19;5094139;28;20095;-81
2023/01/23 05:39:55;;;;;;;21.92;13.77;;;;;;;10.67;76.36;100528.94;5093018;28;20469;-81
2023/01/23 05:42:20;;;;;;;23.13;13.40;;;;;;;9.83;76.11;100396.63;5093026;28;20050;-81
2023/01/23 05:44:46;;;;;;;20.48;12.32;;;;;;;10.63;76.41;100538.16;5094220;28;20095;-81
2023/01/23 05:47:11;;;;;;;21.38;12.68;;;;;;;9.92;76.31;100405.44;5093179;28;20467;-81
2023/01/23 05:49:36;;;;;;;22.63;13.75;;;;;;;9.88;76.05;100426.00;5092860;28;20055;-81
2023/01/23 05:52:02;;;;;;;23.40;12.77;;;;;;;9.96;75.85;100452.44;5094256;28;20016;-81
2023/01/23 05:54:27;;;;;;;18.30;12.95;;;;;;;9.96;75.71;100468.28;5094292;28;20060;-81
2023/01/23 05:56:53;;;;;;;20.23;13.30;;;;;;;10.01;76.28;100444.91;5093779;28;20020;-81
2023/01/23 05:59:18;;;;;;;17.45;12.27;;;;;;;8.74;75.86;100243.06;5093748;28;20020;-81
2023/01/23 06:01:44;;;;;;;19.98;12.55;;;;;;;9.81;75.62;100406.50;5093621;28;20020;-81
2023/01/23 06:04:09;;;;;;;22.05;13.82;;;;;;;10.12;75.62;100467.59;5093909;28;20148;-81
2023/01/23 06:06:34;;;;;;;18.90;12.63;;;;;;;10.13;75.37;100478.00;5093720;28;20016;-81
2023/01/23 06:09:00;;;;;;;23.38;14.13;;;;;;;10.08;75.61;100471.50;5092760;28;21486;-81
2023/01/23 06:11:25;;;;;;;21.42;14.00;;;;;;;9.78;75.81;100426.09;5093437;28;20027;-81
2023/01/23 06:13:51;;;;;;;21.20;14.13;;;;;;;10.53;75.80;100523.41;5091805;28;20420;-80
2023/01/23 06:16:16;;;;;;;22.52;14.68;;;;;;;10.44;75.14;100517.22;5093665;28;20024;-81
2023/01/23 06:18:41;;;;;;;23.52;17.52;;;;;;;9.44;75.07;100338.09;5093619;28;20153;-81
2023/01/23 06:21:07;;;;;;;21.80;13.77;;;;;;;9.62;74.75;100432.97;5094765;28;20059;-81
2023/01/23 06:23:33;;;;;;;23.58;16.33;;;;;;;10.47;74.69;100533.59;5113965;28;20054;-81
2023/01/23 06:26:01;;;;;;;21.85;15.02;;;;;;;10.86;74.69;100574.66;5103703;28;20103;-81
2023/01/23 06:28:27;;;;;;;24.20;14.60;;;;;;;10.84;74.77;100574.78;5093023;28;20051;-82
2023/01/23 06:30:52;;;;;;;22.83;15.23;;;;;;;10.12;74.89;100460.50;5110138;28;20589;-81
2023/01/23 06:33:17;;;;;;;23.75;16.35;;;;;;;10.25;75.18;100512.09;5092291;28;20032;-80
2023/01/23 06:35:43;;;;;;;19.17;14.07;;;;;;;10.06;74.71;100474.31;5092793;28;20028;-81
2023/01/23 06:38:09;;;;;;;20.38;14.30;;;;;;;9.86;74.69;100457.81;5091405;28;20514;-80
2023/01/23 06:40:34;;;;;;;23.30;14.48;;;;;;;10.04;74.90;100484.19;5087052;28;20503;-80
2023/01/23 06:43:00;;;;;;;23.02;15.02;;;;;;;10.33;75.11;100559.69;5091664;28;20020;-79
2023/01/23 06:45:25;;;;;;;19.30;13.52;;;;;;;10.08;74.72;100533.03;5091905;28;20137;-79
2023/01/23 06:47:51;;;;;;;22.92;14.90;;;;;;;9.72;74.74;100500.53;5093131;28;20031;-80
2023/01/23 06:50:17;;;;;;;22.63;16.33;;;;;;;9.27;74.31;100426.69;5091455;28;20081;-79
2023/01/23 06:52:42;;;;;;;26.55;18.58;;;;;;;8.85;74.49;100356.06;5092369;28;20031;-81
2023/01/23 06:55:08;;;;;;;23.13;14.73;;;;;;;9.74;75.06;100511.75;5090684;28;20034;-81
2023/01/23 06:57:34;;;;;;;22.77;15.13;;;;;;;10.37;74.77;100612.00;5091648;28;20038;-81
2023/01/23 06:59:59;;;;;;;21.08;15.30;;;;;;;9.59;74.85;100486.84;5091484;28;20032;-81
2023/01/23 07:02:25;;;;;;;20.20;14.15;;;;;;;9.97;74.58;100575.47;5092271;28;20626;-81
2023/01/23 07:04:50;;;;;;;20.98;13.93;;;;;;;10.37;74.42;100632.31;5092340;28;20036;-81
2023/01/23 07:07:16;;;;;;;20.85;15.90;;;;;;;10.41;74.71;100625.78;5092060;28;20020;-80
2023/01/23 07:09:41;;;;;;;21.45;15.38;;;;;;;10.38;74.21;100636.59;5090011;28;20032;-83
2023/01/23 07:12:07;;;;;;;23.30;15.65;;;;;;;9.79;74.61;100541.16;5090381;28;20473;-82
2023/01/23 07:14:32;;;;;;;28.63;18.23;;;;;;;10.12;74.70;100602.16;5090848;28;20028;-82
2023/01/23 07:16:58;;;;;;;31.20;23.60;;;;;;;9.61;74.82;100519.16;5090141;28;20047;-81
2023/01/23 07:19:23;;;;;;;33.67;24.80;;;;;;;9.93;74.78;100576.75;5091947;28;20054;-82
2023/01/23 07:21:49;;;;;;;32.63;21.45;;;;;;;9.61;74.73;100523.59;5090553;28;20024;-83
2023/01/23 07:24:14;;;;;;;32.33;21.65;;;;;;;9.94;74.95;100598.66;5085363;28;20435;-83
2023/01/23 07:26:40;;;;;;;32.42;20.77;;;;;;;8.94;74.56;100406.22;5086140;28;20524;-82
2023/01/23 07:29:07;;;;;;;32.65;24.33;;;;;;;9.89;74.64;100570.09;5104735;28;20052;-82
2023/01/23 07:31:33;;;;;;;26.15;20.13;;;;;;;9.53;74.91;100509.34;5104942;28;20495;-81
2023/01/23 07:34:00;;;;;;;32.17;21.02;;;;;;;10.24;74.92;100627.41;5089692;28;20032;-81
2023/01/23 07:36:26;;;;;;;31.38;21.52;;;;;;;10.44;74.69;100643.97;5092102;28;20471;-81
2023/01/23 07:38:52;;;;;;;24.02;17.02;;;;;;;10.05;74.98;100572.91;5090502;28;20106;-80
2023/01/23 07:41:17;;;;;;;29.35;19.35;;;;;;;10.38;75.06;100647.16;5091648;28;20618;-84
2023/01/23 07:43:42;;;;;;;29.45;18.75;;;;;;;10.23;74.92;100603.78;5090001;28;20028;-83
2023/01/23 07:46:08;;;;;;;32.53;18.45;;;;;;;10.07;74.75;100584.13;5090621;28;20028;-83
2023/01/23 07:48:35;;;;;;;29.30;17.90;;;;;;;9.78;75.06;100543.94;5089983;28;20507;-83
2023/01/23 07:51:02;;;;;;;28.98;17.50;;;;;;;9.70;75.38;100522.75;5091539;28;20488;-83
2023/01/23 07:53:27;;;;;;;26.92;19.90;;;;;;;9.80;74.80;100555.16;5088913;28;20408;-82
2023/01/23 07:55:53;;;;;;;29.58;18.02;;;;;;;10.27;75.06;100621.81;5091886;28;20031;-81
2023/01/23 07:58:19;;;;;;;30.25;21.33;;;;;;;10.16;75.12;100599.06;5090068;28;20058;-82
2023/01/23 08:00:44;;;;;;;27.15;17.73;;;;;;;10.51;75.18;100666.13;5088318;28;20089;-81
2023/01/23 08:03:10;;;;;;;21.98;15.63;;;;;;;10.26;75.05;100620.16;5095541;28;20028;-81
2023/01/23 08:05:35;;;;;;;24.25;15.52;;;;;;;10.30;74.95;100649.72;5085763;28;20100;-83
2023/01/23 08:08:01;;;;;;;23.40;14.20;;;;;;;10.37;75.03;100641.06;5085665;28;20038;-82
2023/01/23 08:10:26;;;;;;;22.05;14.77;;;;;;;9.87;74.64;100543.03;5091164;28;20028;-82
2023/01/23 08:12:51;;;;;;;24.98;15.32;;;;;;;10.37;74.98;100645.50;5089503;28;20113;-82
2023/01/23 08:15:17;;;;;;;27.42;16.27;;;;;;;10.00;74.46;100545.31;5086624;28;20031;-82
2023/01/23 08:17:42;;;;;;;25.73;15.68;;;;;;;10.06;74.90;100564.00;5086219;28;20492;-82
2023/01/23 08:20:09;;;;;;;21.70;14.40;;;;;;;10.57;74.28;100627.75;5088575;28;20039;-82
2023/01/23 08:22:36;;;;;;;19.02;13.50;;;;;;;10.41;74.77;100612.56;5089630;28;20028;-82
2023/01/23 08:25:02;;;;;;;21.02;14.60;;;;;;;10.37;74.82;100640.22;5089783;28;20028;-82
2023/01/23 08:27:27;;;;;;;22.60;16.70;;;;;;;10.75;74.45;100652.31;5081436;28;20420;-82
2023/01/23 08:29:52;;;;;;;24.17;16.20;;;;;;;10.40;74.81;100613.53;5088232;28;20528;-82
2023/01/23 08:32:18;;;;;;;18.48;13.68;;;;;;;10.31;74.48;100619.72;5090509;28;20036;-82
2023/01/23 08:34:43;;;;;;;21.83;14.45;;;;;;;10.39;74.29;100598.66;5087052;28;20028;-82
2023/01/23 08:37:09;;;;;;;22.38;14.52;;;;;;;10.91;74.55;100684.16;5090916;28;20032;-82
2023/01/23 08:39:34;;;;;;;23.67;13.13;;;;;;;9.64;74.54;100504.84;5090797;28;20031;-82
2023/01/23 08:42:00;;;;;;;23.17;13.45;;;;;;;10.59;74.52;100621.31;5090954;28;20120;-82
2023/01/23 08:44:25;;;;;;;22.63;14.05;;;;;;;10.15;74.49;100549.91;5089618;28;20056;-82
2023/01/23 08:46:51;;;;;;;23.25;15.07;;;;;;;10.53;74.00;100602.63;5090780;28;20074;-82
2023/01/23 08:49:19;;;;;;;21.15;13.60;;;;;;;9.76;73.73;100486.06;5087544;28;20450;-82
2023/01/23 08:51:44;;;;;;;20.55;14.30;;;;;;;10.42;74.21;100611.59;5090257;28;20028;-82
2023/01/23 08:54:10;;;;;;;18.95;13.23;;;;;;;10.68;73.89;100646.00;5083058;28;20035;-81
2023/01/23 08:56:35;;;;;;;16.65;12.80;;;;;;;10.02;73.74;100524.88;5090413;28;20024;-82
2023/01/23 08:59:01;;;;;;;20.23;13.15;;;;;;;10.25;72.98;100583.34;5090095;28;20552;-82
2023/01/23 09:01:26;;;;;;;24.42;15.65;;;;;;;10.57;73.76;100627.75;5089652;28;20020;-81
2023/01/23 09:03:52;;;;;;;16.88;12.00;;;;;;;10.77;73.76;100659.13;5089489;28;20057;-82
2023/01/23 09:06:20;;;;;;;18.40;13.00;;;;;;;10.49;73.56;100636.41;5087771;28;20020;-82
2023/01/23 09:08:46;;;;;;;19.92;12.68;;;;;;;10.48;73.23;100642.69;5093968;28;20441;-82
2023/01/23 09:11:12;;;;;;;19.58;12.93;;;;;;;10.81;73.54;100678.97;5103245;28;20032;-81
2023/01/23 09:13:38;;;;;;;17.58;13.13;;;;;;;10.72;73.09;100655.28;5093428;28;20132;-82
2023/01/23 09:16:07;;;;;;;22.17;14.63;;;;;;;10.83;73.12;100665.59;5089626;28;20057;-82
2023/01/23 09:18:32;;;;;;;19.25;14.55;;;;;;;10.83;73.19;100665.59;5093470;28;20413;-82
2023/01/23 09:20:58;;;;;;;21.52;14.30;;;;;;;9.06;72.68;100379.53;5093148;28;20052;-82
2023/01/23 09:23:23;;;;;;;23.92;16.08;;;;;;;10.36;72.85;100591.88;5093122;28;20036;-82
2023/01/23 09:25:49;;;;;;;27.65;19.13;;;;;;;10.86;72.53;100661.81;5092888;28;20020;-82
2023/01/23 09:28:14;;;;;;;24.95;16.30;;;;;;;10.32;72.73;100611.63;5092822;28;20042;-82
2023/01/23 09:30:40;;;;;;;24.45;14.95;;;;;;;10.75;72.72;100673.47;5093662;28;20028;-82
2023/01/23 09:33:06;;;;;;;25.73;16.33;;;;;;;10.91;72.43;100665.66;5091840;28;20081;-82
2023/01/23 09:35:31;;;;;;;27.60;16.95;;;;;;;10.25;72.11;100562.25;5093308;28;20043;-82
2023/01/23 09:38:00;;;;;;;22.80;15.82;;;;;;;10.60;72.01;100614.22;5093190;28;20039;-82
2023/01/23 09:40:37;;;;;;;26.35;16.15;;;;;;;10.07;72.08;100534.00;5094489;28;20028;-82
2023/01/23 09:43:26;;;;;;;26.20;17.23;;;;;;;10.83;72.25;100678.81;5093686;28;20024;-82
2023/01/23 09:46:11;;;;;;;26.73;16.73;;;;;;;10.96;72.15;100660.75;5088373;28;20118;-82
2023/01/23 09:49:07;;;;;;;29.08;20.52;;;;;;;10.56;72.27;100587.28;5094627;28;20445;-82
2023/01/23 09:51:32;;;;;;;23.35;14.85;;;;;;;11.00;72.38;100664.75;5069535;28;20048;-82
2023/01/23 09:54:13;;;;;;;23.27;13.48;;;;;;;10.65;71.78;100601.41;5090784;28;20565;-82
2023/01/23 09:56:46;;;;;;;23.02;14.00;;;;;;;9.57;71.65;100421.06;5107344;28;20027;-82
2023/01/23 09:59:23;;;;;;;21.95;14.88;;;;;;;11.08;71.88;100685.13;5094281;28;20028;-82
2023/01/23 10:01:49;;;;;;;21.45;14.20;;;;;;;10.87;71.39;100624.69;5091780;28;20066;-82
2023/01/23 10:04:18;;;;;;;24.90;15.98;;;;;;;10.30;71.24;100512.47;5092370;28;20027;-82
2023/01/23 10:07:02;;;;;;;23.92;13.38;;;;;;;10.10;70.56;100474.81;5092895;28;20052;-82
2023/01/23 10:10:05;;;;;;;18.10;13.43;;;;;;;11.19;70.28;100647.91;5091190;28;20049;-82
2023/01/23 10:12:39;;;;;;;22.13;13.23;;;;;;;11.14;70.57;100655.44;5085747;28;20078;-82
2023/01/23 10:15:40;;;;;;;19.20;13.45;;;;;;;10.82;70.63;100611.94;5088346;28;20109;-82
2023/01/23 10:18:25;;;;;;;26.35;18.80;;;;;;;10.32;70.43;100528.97;5091802;28;20035;-82
2023/01/23 10:20:56;;;;;;;30.15;22.75;;;;;;;10.66;70.17;100584.56;5093427;28;20064;-81
2023/01/23 10:23:37;;;;;;;31.90;17.60;;;;;;;11.08;69.69;100642.84;5092248;28;20567;-82
2023/01/23 10:26:03;;;;;;;24.42;18.83;;;;;;;11.11;70.42;100646.00;5092142;28;20394;-82
2023/01/23 10:28:37;;;;;;;22.48;15.43;;;;;;;11.12;70.32;100644.19;5091191;28;20066;-82
2023/01/23 10:31:09;;;;;;;25.63;16.63;;;;;;;10.53;70.38;100540.06;5092047;28;20024;-82
2023/01/23 10:33:53;;;;;;;33.08;22.77;;;;;;;10.65;69.98;100570.53;5093146;28;20028;-82
2023/01/23 10:36:28;;;;;;;25.73;18.48;;;;;;;11.15;69.73;100635.97;5101960;28;20035;-84
2023/01/23 10:38:56;;;;;;;26.85;17.90;;;;;;;11.12;70.45;100630.97;5106102;28;20488;-82
2023/01/23 10:41:22;;;;;;;25.45;16.42;;;;;;;11.01;70.16;100612.72;5092601;28;20048;-82
2023/01/23 10:43:50;;;;;;;23.35;16.52;;;;;;;11.12;70.20;100623.88;5091102;28;20137;-82
2023/01/23 10:46:26;;;;;;;22.98;15.85;;;;;;;11.12;69.42;100620.41;5071604;28;20062;-81
2023/01/23 10:48:53;;;;;;;21.63;16.45;;;;;;;11.05;70.05;100627.28;5073163;28;20037;-81
2023/01/23 10:51:36;;;;;;;24.40;17.02;;;;;;;11.12;70.23;100625.69;5088255;28;20028;-82
2023/01/23 10:54:08;;;;;;;24.70;16.52;;;;;;;11.12;69.88;100621.22;5084939;28;20028;-82
2023/01/23 10:56:36;;;;;;;19.23;14.38;;;;;;;10.86;69.86;100596.59;5094818;28;20051;-81
2023/01/23 10:59:04;;;;;;;26.33;16.73;;;;;;;11.11;70.37;100624.84;5097010;28;20034;-81
2023/01/23 11:01:34;;;;;;;23.02;16.23;;;;;;;10.78;70.13;100570.97;5114879;28;20026;-82
2023/01/23 11:04:22;;;;;;;22.25;14.18;;;;;;;11.01;70.10;100610.91;5112675;28;20504;-82
2023/01/23 11:07:01;;;;;;;25.33;14.90;;;;;;;11.00;69.91;100625.13;5092662;28;20024;-82
2023/01/23 11:09:26;;;;;;;23.00;14.95;;;;;;;10.98;70.26;100637.66;5089936;28;20115;-82
2023/01/23 11:12:05;;;;;;;27.05;16.42;;;;;;;10.79;70.18;100624.63;5085068;28;20165;-82
2023/01/23 11:14:31;;;;;;;25.50;15.63;;;;;;;10.95;70.42;100624.75;5089768;28;20020;-82
2023/01/23 11:17:13;;;;;;;24.13;14.38;;;;;;;10.65;70.32;100575.00;5090360;28;20028;-81
2023/01/23 11:19:40;;;;;;;23.83;15.43;;;;;;;10.40;70.95;100547.53;5084521;28;20063;-82